Time;durP1;ratioP1;P1;durP2;ratioP2;P2;SDS_P1;SDS_P2;PMS_P1;PMS_P2;Temp;Humidity;BMP_temperature;BMP_pressure;BME280_temperature;BME280_humidity;BME280_pressure;Samples;Min_cycle;Max_cycle;Signal;HPM_P1;HPM_P2
2022/09/09 00:03:53;;;;;;;2.50;1.00;;;23.50;61.40;;;;;;10124462;29;20688;-56
2022/09/09 00:09:12;;;;;;;2.10;0.80;;;23.60;61.30;;;;;;10108801;29;20045;-56
2022/09/09 00:14:23;;;;;;;2.05;1.00;;;23.50;61.30;;;;;;10133039;29;20395;-56
2022/09/09 00:19:56;;;;;;;3.17;1.48;;;23.60;61.30;;;;;;10145025;29;20123;-56
2022/09/09 00:25:17;;;;;;;1.20;0.82;;;23.50;61.20;;;;;;10105260;29;20044;-54
2022/09/09 00:30:25;;;;;;;1.52;0.73;;;23.60;61.30;;;;;;10132386;29;20048;-54
2022/09/09 00:35:36;;;;;;;2.35;0.90;;;23.50;61.10;;;;;;10132813;29;20065;-56
2022/09/09 00:40:49;;;;;;;1.67;0.85;;;23.50;61.00;;;;;;10115730;29;20032;-56
2022/09/09 00:46:32;;;;;;;2.47;1.48;;;23.50;61.10;;;;;;10132106;29;20092;-56
2022/09/09 00:52:18;;;;;;;1.75;0.75;;;23.50;61.10;;;;;;10116803;29;20362;-56
2022/09/09 00:57:40;;;;;;;2.38;1.05;;;23.50;61.10;;;;;;10130962;29;20040;-56
2022/09/09 01:02:59;;;;;;;1.00;0.80;;;23.50;61.00;;;;;;10130988;29;20150;-54
2022/09/09 01:08:04;;;;;;;2.47;1.23;;;23.50;61.00;;;;;;10131242;29;20138;-57
2022/09/09 01:13:20;;;;;;;1.10;1.00;;;23.50;61.00;;;;;;10129712;29;20055;-57
2022/09/09 01:18:26;;;;;;;1.73;0.70;;;23.50;61.00;;;;;;10101876;29;20047;-58
2022/09/09 01:24:00;;;;;;;1.45;0.80;;;23.40;61.00;;;;;;10127739;29;20040;-57
2022/09/09 01:29:01;;;;;;;1.35;0.90;;;23.40;60.80;;;;;;10130442;29;20127;-57
2022/09/09 01:34:02;;;;;;;1.52;0.80;;;23.40;60.80;;;;;;10130059;29;20051;-54
2022/09/09 01:39:03;;;;;;;1.35;1.15;;;23.40;60.80;;;;;;10130155;29;20024;-57
2022/09/09 01:44:07;;;;;;;3.35;0.82;;;23.40;60.80;;;;;;10112969;29;20036;-57
2022/09/09 01:49:08;;;;;;;1.05;0.80;;;23.40;60.80;;;;;;10128769;29;20048;-57
2022/09/09 01:54:10;;;;;;;1.10;0.90;;;23.40;60.80;;;;;;10129371;29;20166;-57
2022/09/09 01:59:39;;;;;;;1.55;0.98;;;23.40;60.70;;;;;;10128971;29;20072;-55
2022/09/09 02:04:56;;;;;;;1.33;0.80;;;23.40;60.70;;;;;;10125897;29;20044;-57
2022/09/09 02:10:16;;;;;;;1.02;0.73;;;23.40;60.70;;;;;;10127646;29;20059;-54
2022/09/09 02:15:52;;;;;;;1.25;0.75;;;23.40;60.50;;;;;;10117708;29;20033;-54
2022/09/09 02:20:53;;;;;;;1.25;0.63;;;23.40;60.40;;;;;;10093599;29;20049;-56
2022/09/09 02:25:57;;;;;;;0.80;0.60;;;23.40;60.50;;;;;;10111006;29;20028;-57
2022/09/09 02:30:59;;;;;;;1.38;0.80;;;23.40;60.60;;;;;;10111075;29;20051;-57
2022/09/09 02:36:03;;;;;;;0.95;0.60;;;23.40;60.50;;;;;;10111217;29;20092;-52
2022/09/09 02:41:04;;;;;;;1.58;0.90;;;23.40;60.50;;;;;;10127633;29;20489;-53
2022/09/09 02:46:28;;;;;;;1.50;0.95;;;23.30;60.50;;;;;;10127521;29;20045;-53
2022/09/09 02:52:00;;;;;;;0.90;0.50;;;23.40;60.50;;;;;;10126032;29;20917;-52
2022/09/09 02:57:12;;;;;;;1.48;0.80;;;23.30;60.60;;;;;;10126658;29;20067;-54
2022/09/09 03:02:13;;;;;;;1.38;0.80;;;23.30;60.50;;;;;;10126266;29;20047;-54
2022/09/09 03:07:14;;;;;;;1.35;0.70;;;23.30;60.40;;;;;;10127039;29;20037;-54
2022/09/09 03:12:16;;;;;;;0.88;0.75;;;23.30;60.40;;;;;;10126357;29;20037;-54
2022/09/09 03:17:16;;;;;;;1.85;0.70;;;23.30;60.30;;;;;;10120994;29;20081;-55
2022/09/09 03:22:17;;;;;;;1.67;0.90;;;23.30;60.90;;;;;;10102263;29;20120;-54
2022/09/09 03:27:19;;;;;;;1.40;0.63;;;23.30;60.30;;;;;;10126062;29;20111;-54
2022/09/09 03:32:22;;;;;;;0.70;0.70;;;23.30;60.30;;;;;;10125718;29;20049;-55
2022/09/09 03:37:23;;;;;;;1.65;0.80;;;23.30;60.30;;;;;;10109503;29;20378;-55
2022/09/09 03:42:23;;;;;;;0.90;0.65;;;23.30;60.30;;;;;;10108551;29;20041;-55
2022/09/09 03:47:24;;;;;;;1.42;0.70;;;23.30;60.20;;;;;;10125462;29;20032;-54
2022/09/09 03:52:26;;;;;;;1.73;0.90;;;23.20;60.20;;;;;;10124756;29;20053;-54
2022/09/09 03:57:26;;;;;;;3.97;2.00;;;23.20;60.20;;;;;;10125351;29;20151;-53
2022/09/09 04:02:27;;;;;;;1.83;0.82;;;23.20;60.30;;;;;;10125222;29;20763;-53
2022/09/09 04:07:28;;;;;;;1.42;0.90;;;23.20;60.10;;;;;;10125281;29;20064;-54
2022/09/09 04:12:28;;;;;;;1.02;0.50;;;23.20;60.20;;;;;;10124407;29;20131;-54
2022/09/09 04:17:29;;;;;;;2.65;0.70;;;23.20;60.20;;;;;;10124898;29;20025;-56
2022/09/09 04:22:31;;;;;;;0.88;0.50;;;23.20;60.20;;;;;;10125091;29;20068;-56
2022/09/09 04:27:32;;;;;;;0.88;0.50;;;23.20;60.10;;;;;;10124994;29;20032;-55
2022/09/09 04:32:36;;;;;;;0.60;0.50;;;23.20;60.10;;;;;;10124439;29;20649;-54
2022/09/09 04:37:37;;;;;;;1.27;0.80;;;23.10;60.00;;;;;;10107741;29;20028;-55
2022/09/09 04:42:39;;;;;;;0.75;0.60;;;23.10;60.10;;;;;;10123348;29;20103;-56
2022/09/09 04:47:39;;;;;;;2.58;0.70;;;23.20;60.10;;;;;;10131306;29;20047;-55
2022/09/09 04:52:40;;;;;;;1.45;0.68;;;23.20;60.10;;;;;;10123797;29;20052;-56
2022/09/09 04:57:41;;;;;;;1.85;0.93;;;23.10;60.10;;;;;;10134894;29;20037;-54
2022/09/09 05:02:42;;;;;;;1.90;0.82;;;23.10;60.00;;;;;;10112046;29;20796;-53
2022/09/09 05:07:43;;;;;;;4.78;0.65;;;23.20;60.30;;;;;;10130114;29;20052;-54
2022/09/09 05:12:53;;;;;;;5.35;1.67;;;23.20;60.60;;;;;;10114308;29;20139;-55
2022/09/09 05:18:00;;;;;;;3.80;1.10;;;23.20;60.90;;;;;;10124122;29;20044;-55
2022/09/09 05:23:01;;;;;;;3.60;1.02;;;23.20;61.50;;;;;;10114771;29;20037;-53
2022/09/09 05:28:02;;;;;;;6.55;1.25;;;23.30;61.80;;;;;;10129855;29;20717;-56
2022/09/09 05:33:02;;;;;;;9.02;1.17;;;23.20;61.90;;;;;;10110407;29;20051;-57
2022/09/09 05:38:04;;;;;;;5.68;1.38;;;23.30;62.00;;;;;;10129006;29;20036;-55
2022/09/09 05:43:04;;;;;;;8.23;1.77;;;23.20;62.10;;;;;;10129435;29;20048;-53
2022/09/09 05:48:05;;;;;;;7.80;1.23;;;23.20;62.00;;;;;;10128116;29;20124;-54
2022/09/09 05:53:06;;;;;;;4.63;1.50;;;23.20;62.10;;;;;;10130853;29;20196;-54
2022/09/09 05:58:06;;;;;;;5.13;1.33;;;23.20;62.00;;;;;;10126112;29;20176;-54
2022/09/09 06:03:11;;;;;;;14.52;1.95;;;23.20;62.40;;;;;;10128225;29;20068;-54
2022/09/09 06:08:12;;;;;;;11.90;2.00;;;23.20;62.90;;;;;;10114205;29;20069;-55
2022/09/09 06:13:13;;;;;;;13.73;2.33;;;23.20;62.70;;;;;;10126214;29;20814;-54
2022/09/09 06:18:13;;;;;;;10.10;2.35;;;23.20;62.50;;;;;;10117619;29;20047;-55
2022/09/09 06:23:14;;;;;;;7.85;1.58;;;23.20;62.70;;;;;;10105760;29;20136;-54
2022/09/09 06:28:15;;;;;;;6.20;1.42;;;23.10;62.50;;;;;;10124247;29;20084;-54
2022/09/09 06:33:16;;;;;;;3.70;0.93;;;23.10;62.10;;;;;;10124989;29;20041;-54
2022/09/09 06:38:18;;;;;;;5.90;1.45;;;23.10;61.80;;;;;;10122266;29;20111;-55
2022/09/09 06:43:19;;;;;;;4.53;1.45;;;23.10;61.90;;;;;;10122720;29;20044;-55
2022/09/09 06:48:20;;;;;;;6.60;1.60;;;23.10;62.30;;;;;;10122664;29;20590;-56
2022/09/09 06:53:20;;;;;;;5.30;1.27;;;23.10;61.80;;;;;;10100128;29;20112;-54
2022/09/09 06:58:24;;;;;;;7.40;1.48;;;23.10;61.70;;;;;;10122282;29;20140;-54
2022/09/09 07:03:25;;;;;;;5.05;1.42;;;23.10;62.30;;;;;;10126428;29;20032;-55
2022/09/09 07:08:26;;;;;;;9.27;1.48;;;23.00;62.10;;;;;;10125026;29;20044;-55
2022/09/09 07:13:27;;;;;;;4.10;1.30;;;23.10;63.30;;;;;;10122074;29;20049;-54
2022/09/09 07:18:27;;;;;;;5.50;1.77;;;23.10;63.00;;;;;;10136992;29;20058;-55
2022/09/09 07:23:30;;;;;;;7.90;1.63;;;23.10;63.10;;;;;;10122823;29;20040;-55
2022/09/09 07:28:30;;;;;;;7.30;1.50;;;23.10;62.40;;;;;;10123665;29;20037;-53
2022/09/09 07:33:34;;;;;;;7.32;1.65;;;23.10;62.30;;;;;;10122011;29;20507;-55
2022/09/09 07:38:45;;;;;;;6.00;1.70;;;23.10;62.30;;;;;;10123452;29;20115;-53
2022/09/09 07:43:48;;;;;;;8.23;2.88;;;23.00;62.40;;;;;;10122456;29;20395;-53
2022/09/09 07:48:55;;;;;;;6.38;1.35;;;23.00;62.60;;;;;;10122697;29;20404;-55
2022/09/09 07:54:00;;;;;;;5.38;1.58;;;23.00;62.50;;;;;;10106450;29;20049;-52
2022/09/09 07:59:01;;;;;;;10.98;2.35;;;23.00;62.70;;;;;;10122256;29;20048;-54
2022/09/09 08:04:07;;;;;;;6.53;2.15;;;23.10;64.00;;;;;;10121613;29;20078;-55
2022/09/09 08:09:09;;;;;;;5.30;1.95;;;23.10;64.40;;;;;;10119156;29;20037;-55
2022/09/09 08:14:11;;;;;;;3.83;1.40;;;23.00;64.20;;;;;;10122070;29;20095;-54
2022/09/09 08:19:15;;;;;;;6.70;2.17;;;23.00;64.00;;;;;;10134250;29;20485;-53
2022/09/09 08:24:16;;;;;;;8.60;2.17;;;23.00;63.70;;;;;;10119035;29;20041;-54
2022/09/09 08:29:17;;;;;;;16.02;1.98;;;23.00;63.90;;;;;;10105607;29;20404;-54
2022/09/09 08:34:19;;;;;;;8.95;1.83;;;23.10;63.80;;;;;;10126337;29;20049;-54
2022/09/09 08:39:22;;;;;;;5.82;1.38;;;23.10;62.90;;;;;;10114054;29;20499;-56
2022/09/09 08:44:35;;;;;;;5.82;1.38;;;23.00;63.00;;;;;;10130270;29;20033;-55
2022/09/09 08:50:27;;;;;;;3.88;1.42;;;23.00;63.00;;;;;;10129675;29;20032;-54
2022/09/09 08:55:51;;;;;;;3.95;1.20;;;22.90;62.70;;;;;;10128317;29;20048;-55
2022/09/09 09:01:19;;;;;;;3.65;1.33;;;23.00;62.50;;;;;;10102929;29;20111;-52
2022/09/09 09:06:44;;;;;;;2.90;1.15;;;23.00;62.40;;;;;;10127980;29;20049;-56
2022/09/09 09:12:00;;;;;;;6.10;1.80;;;23.00;62.40;;;;;;10107358;29;20462;-54
2022/09/09 09:17:09;;;;;;;2.88;1.10;;;23.00;62.50;;;;;;10132084;29;20155;-56
2022/09/09 09:22:28;;;;;;;6.60;1.33;;;22.90;62.30;;;;;;10137676;29;20514;-55
2022/09/09 09:27:40;;;;;;;3.35;1.73;;;22.90;62.20;;;;;;10113050;29;20464;-53
2022/09/09 09:32:58;;;;;;;4.03;1.45;;;22.90;62.00;;;;;;10128269;29;20036;-56
2022/09/09 09:38:00;;;;;;;5.45;1.70;;;22.90;61.90;;;;;;10112195;29;20037;-55
2022/09/09 09:43:01;;;;;;;2.33;1.10;;;22.90;62.10;;;;;;10127664;29;20033;-55
2022/09/09 09:48:10;;;;;;;5.25;1.60;;;22.90;61.70;;;;;;10109260;29;20099;-54
2022/09/09 09:53:31;;;;;;;;;;;22.90;62.20;;;;;;10111520;29;20040;-55
2022/09/09 09:58:46;;;;;;;5.05;1.77;;;22.90;62.30;;;;;;10127747;29;19919;-52
2022/09/09 10:03:52;;;;;;;4.55;1.80;;;22.90;62.60;;;;;;10112674;29;20089;-53
2022/09/09 10:08:53;;;;;;;2.85;1.25;;;22.90;62.30;;;;;;10122791;29;20682;-55
2022/09/09 10:14:22;;;;;;;8.02;1.83;;;22.90;62.20;;;;;;10108425;29;20064;-56
2022/09/09 10:19:35;;;;;;;5.07;1.73;;;22.90;63.40;;;;;;10122391;29;20502;-57
2022/09/09 10:24:52;;;;;;;6.07;2.00;;;22.90;63.50;;;;;;10126128;29;20043;-56
2022/09/09 10:30:17;;;;;;;7.80;1.83;;;22.90;63.00;;;;;;10125639;29;20040;-60
2022/09/09 10:35:54;;;;;;;4.80;1.90;;;23.00;62.60;;;;;;10122824;29;20128;-59
2022/09/09 10:40:56;;;;;;;6.50;2.13;;;23.00;62.90;;;;;;10124592;29;20075;-57
2022/09/09 10:46:46;;;;;;;5.63;1.67;;;22.90;63.10;;;;;;10125292;29;20498;-58
2022/09/09 10:52:28;;;;;;;5.82;1.73;;;22.90;63.10;;;;;;10126223;29;20080;-55
2022/09/09 10:57:39;;;;;;;7.53;1.85;;;23.00;63.10;;;;;;10109544;29;20081;-56
2022/09/09 11:02:44;;;;;;;5.15;1.75;;;23.00;63.30;;;;;;10107633;29;20366;-54
2022/09/09 11:08:20;;;;;;;6.00;2.03;;;23.00;63.30;;;;;;10124878;29;20067;-55
2022/09/09 11:13:54;;;;;;;4.75;1.88;;;23.00;63.30;;;;;;10108319;29;20104;-54
2022/09/09 11:19:09;;;;;;;5.93;1.75;;;23.00;63.50;;;;;;10123733;29;20041;-56
2022/09/09 11:24:35;;;;;;;7.28;1.75;;;23.00;63.90;;;;;;10108186;29;20041;-55
2022/09/09 11:29:57;;;;;;;4.75;1.80;;;23.00;64.00;;;;;;10107513;29;20058;-56
2022/09/09 11:35:13;;;;;;;2.83;1.48;;;23.00;63.80;;;;;;10113543;29;20052;-55
2022/09/09 11:40:23;;;;;;;4.80;1.60;;;23.00;64.00;;;;;;10123852;29;20120;-55
2022/09/09 11:45:29;;;;;;;4.75;1.60;;;23.00;64.10;;;;;;10122282;29;20036;-54
2022/09/09 11:50:36;;;;;;;4.80;1.58;;;23.00;64.30;;;;;;10094827;29;20033;-53
2022/09/09 11:55:37;;;;;;;5.30;2.28;;;23.00;64.10;;;;;;10122271;29;20056;-53
2022/09/09 12:00:41;;;;;;;4.20;1.70;;;22.90;64.00;;;;;;10122700;29;20056;-52
2022/09/09 12:05:45;;;;;;;3.75;1.83;;;22.90;64.00;;;;;;10121761;29;20540;-51
2022/09/09 12:10:59;;;;;;;5.28;1.77;;;22.90;63.80;;;;;;10133129;29;20041;-53
2022/09/09 12:16:02;;;;;;;4.43;1.55;;;22.90;63.70;;;;;;10122088;29;20532;-52
2022/09/09 12:21:27;;;;;;;5.50;2.17;;;22.90;63.20;;;;;;10117442;29;20044;-50
2022/09/09 12:26:54;;;;;;;4.53;1.63;;;22.90;62.90;;;;;;10121495;29;20041;-55
2022/09/09 12:32:18;;;;;;;3.75;1.67;;;22.90;63.60;;;;;;10115761;29;20045;-54
2022/09/09 12:37:37;;;;;;;8.10;1.88;;;22.90;63.50;;;;;;10105110;29;20029;-55
2022/09/09 12:42:40;;;;;;;11.10;2.53;;;22.90;63.80;;;;;;10119935;29;20031;-52
2022/09/09 12:48:15;;;;;;;12.88;2.90;;;23.00;64.10;;;;;;10121322;29;20813;-55
2022/09/09 12:53:31;;;;;;;9.32;2.53;;;23.00;64.00;;;;;;10120206;29;20112;-53
2022/09/09 12:58:32;;;;;;;9.50;2.58;;;23.00;64.00;;;;;;10121328;29;20131;-54
2022/09/09 13:03:47;;;;;;;17.17;3.25;;;23.00;64.70;;;;;;10122526;29;20080;-54
2022/09/09 13:08:47;;;;;;;15.25;3.28;;;23.00;65.20;;;;;;10118679;29;20401;-54
2022/09/09 13:13:55;;;;;;;18.83;3.47;;;23.00;64.70;;;;;;10104323;29;20037;-54
2022/09/09 13:18:56;;;;;;;11.38;3.25;;;23.00;64.80;;;;;;10107148;29;20064;-54
2022/09/09 13:23:59;;;;;;;11.18;2.28;;;23.00;64.90;;;;;;10128406;29;20045;-52
2022/09/09 13:29:19;;;;;;;13.80;3.40;;;23.00;64.70;;;;;;10127721;29;20541;-53
2022/09/09 13:34:32;;;;;;;16.38;3.42;;;23.00;64.60;;;;;;10111721;29;20052;-54
2022/09/09 13:39:37;;;;;;;18.10;2.88;;;23.00;64.60;;;;;;10111411;29;20540;-54
2022/09/09 13:44:41;;;;;;;14.77;3.33;;;23.00;64.90;;;;;;10126507;29;20766;-54
2022/09/09 13:49:42;;;;;;;23.42;4.05;;;23.00;64.80;;;;;;10109851;29;20032;-55
2022/09/09 13:54:50;;;;;;;19.33;3.78;;;23.00;65.20;;;;;;10106961;29;20488;-55
2022/09/09 13:59:54;;;;;;;15.20;3.83;;;22.90;65.00;;;;;;10127750;29;20048;-56
2022/09/09 14:04:55;;;;;;;27.40;4.93;;;22.90;65.40;;;;;;10125359;29;20044;-55
2022/09/09 14:09:56;;;;;;;26.83;5.93;;;22.90;65.70;;;;;;10125237;29;20504;-54
2022/09/09 14:14:56;;;;;;;23.83;4.38;;;23.00;66.30;;;;;;10109069;29;20624;-53
2022/09/09 14:19:58;;;;;;;24.05;4.63;;;23.00;65.40;;;;;;10108688;29;20162;-55
2022/09/09 14:24:58;;;;;;;17.13;3.05;;;23.00;65.20;;;;;;10118726;29;20715;-55
2022/09/09 14:30:00;;;;;;;14.85;3.08;;;23.00;65.00;;;;;;10123603;29;20301;-55
2022/09/09 14:35:01;;;;;;;11.07;3.50;;;22.90;65.30;;;;;;10119182;29;20040;-56
2022/09/09 14:40:02;;;;;;;12.10;3.70;;;22.90;65.00;;;;;;10124571;29;20071;-54
2022/09/09 14:45:03;;;;;;;27.40;5.32;;;22.80;65.40;;;;;;10122675;29;20051;-55
2022/09/09 14:50:05;;;;;;;19.60;4.80;;;22.90;65.80;;;;;;10111316;29;20036;-54
2022/09/09 14:55:07;;;;;;;18.20;3.97;;;22.90;66.40;;;;;;10123168;29;20049;-54
2022/09/09 15:00:10;;;;;;;23.23;4.30;;;23.00;66.60;;;;;;10113902;29;20016;-55
2022/09/09 15:05:11;;;;;;;20.60;3.78;;;22.90;66.70;;;;;;10123293;29;20037;-53
2022/09/09 15:10:12;;;;;;;13.55;3.08;;;22.90;66.80;;;;;;10122088;29;20111;-55
2022/09/09 15:15:12;;;;;;;16.35;3.22;;;22.90;66.80;;;;;;10122814;29;20045;-56
2022/09/09 15:20:13;;;;;;;12.65;7.60;;;22.90;67.00;;;;;;10121289;29;20036;-56
2022/09/09 15:25:14;;;;;;;27.88;11.27;;;23.00;66.80;;;;;;10103272;29;20204;-56
2022/09/09 15:30:14;;;;;;;28.00;8.20;;;22.90;66.40;;;;;;10119265;29;20037;-56
2022/09/09 15:35:15;;;;;;;17.92;7.13;;;23.00;67.60;;;;;;10115196;29;20518;-55
2022/09/09 15:40:16;;;;;;;20.25;5.18;;;22.90;67.50;;;;;;10107727;29;20120;-55
2022/09/09 15:45:16;;;;;;;10.93;4.95;;;22.90;67.60;;;;;;10104139;29;20150;-55
2022/09/09 15:50:17;;;;;;;10.52;3.55;;;22.90;67.50;;;;;;10119996;29;20068;-56
2022/09/09 15:55:20;;;;;;;34.03;5.50;;;22.90;66.40;;;;;;10119520;29;20131;-56
2022/09/09 16:00:22;;;;;;;16.75;3.28;;;22.90;66.40;;;;;;10120258;29;20032;-54
2022/09/09 16:05:23;;;;;;;27.85;4.72;;;22.90;66.60;;;;;;10107288;29;20380;-55
2022/09/09 16:10:24;;;;;;;15.93;5.10;;;23.00;67.60;;;;;;10119272;29;20116;-55
2022/09/09 16:15:24;;;;;;;18.63;4.65;;;23.10;69.80;;;;;;10119333;29;20127;-54
2022/09/09 16:20:25;;;;;;;18.13;4.78;;;23.10;69.30;;;;;;10103443;29;20111;-56
2022/09/09 16:25:27;;;;;;;27.98;5.00;;;23.20;69.00;;;;;;10120752;29;20116;-56
2022/09/09 16:30:27;;;;;;;23.45;5.57;;;23.20;69.10;;;;;;10120040;29;20041;-56
2022/09/09 16:35:29;;;;;;;21.77;5.30;;;23.20;69.40;;;;;;10118163;29;20088;-55
2022/09/09 16:40:34;;;;;;;13.57;3.80;;;23.20;69.10;;;;;;10107568;29;20069;-54
2022/09/09 16:45:40;;;;;;;17.55;3.85;;;23.20;69.40;;;;;;10124067;29;20045;-55
2022/09/09 16:50:41;;;;;;;11.77;3.97;;;23.20;69.20;;;;;;10106667;29;20036;-54
2022/09/09 16:55:42;;;;;;;17.42;3.55;;;23.20;69.10;;;;;;10129850;29;20136;-55
2022/09/09 17:00:42;;;;;;;17.50;3.95;;;23.20;69.10;;;;;;10111782;29;20153;-54
2022/09/09 17:05:44;;;;;;;11.50;2.67;;;23.00;69.10;;;;;;10131924;29;20060;-53
2022/09/09 17:10:45;;;;;;;13.55;3.40;;;23.00;68.70;;;;;;10112622;29;20425;-53
2022/09/09 17:15:46;;;;;;;14.18;3.92;;;23.00;68.80;;;;;;10124719;29;20051;-54
2022/09/09 17:20:46;;;;;;;14.75;3.05;;;23.00;69.20;;;;;;10130897;29;20028;-55
2022/09/09 17:25:57;;;;;;;19.10;3.38;;;22.90;68.90;;;;;;10129472;29;20144;-54
2022/09/09 17:31:02;;;;;;;10.70;2.83;;;22.90;68.90;;;;;;10130182;29;20092;-53
2022/09/09 17:36:13;;;;;;;9.23;3.65;;;22.90;69.00;;;;;;10128582;29;20029;-54
2022/09/09 17:41:24;;;;;;;13.00;3.05;;;22.90;68.70;;;;;;10111641;29;20512;-55
2022/09/09 17:46:31;;;;;;;16.08;2.85;;;22.90;68.50;;;;;;10122983;29;20040;-54
2022/09/09 17:51:33;;;;;;;10.90;2.47;;;22.90;68.50;;;;;;10105294;29;20069;-54
2022/09/09 17:56:35;;;;;;;11.75;3.10;;;22.90;68.60;;;;;;10119840;29;20045;-54
2022/09/09 18:01:39;;;;;;;8.15;3.35;;;22.90;68.60;;;;;;10128754;29;20045;-55
2022/09/09 18:06:47;;;;;;;11.07;3.00;;;22.80;68.20;;;;;;10128288;29;20036;-54
2022/09/09 18:11:55;;;;;;;9.52;3.35;;;22.90;68.50;;;;;;10129685;29;20052;-55
2022/09/09 18:17:01;;;;;;;11.65;2.33;;;22.80;68.40;;;;;;10132281;29;20041;-55
2022/09/09 18:22:04;;;;;;;6.65;2.25;;;22.80;68.30;;;;;;10127170;29;20068;-54
2022/09/09 18:27:05;;;;;;;13.48;3.00;;;22.80;68.10;;;;;;10127265;29;20384;-54
2022/09/09 18:32:06;;;;;;;12.40;3.97;;;22.90;68.00;;;;;;10128141;29;20535;-55
2022/09/09 18:37:08;;;;;;;5.03;2.60;;;22.90;67.90;;;;;;10126947;29;20161;-54
2022/09/09 18:42:11;;;;;;;5.43;2.88;;;22.90;67.80;;;;;;10127609;29;20087;-55
2022/09/09 18:47:12;;;;;;;4.80;1.95;;;22.90;67.80;;;;;;10126576;29;20037;-55
2022/09/09 18:52:13;;;;;;;10.45;2.42;;;22.90;67.80;;;;;;10126100;29;20051;-54
2022/09/09 18:57:14;;;;;;;6.70;2.20;;;22.90;67.60;;;;;;10123970;29;20123;-55
2022/09/09 19:02:15;;;;;;;9.75;2.13;;;22.90;67.30;;;;;;10125505;29;20044;-54
2022/09/09 19:07:17;;;;;;;3.53;1.52;;;22.90;67.50;;;;;;10108835;29;20154;-55
2022/09/09 19:12:17;;;;;;;7.38;2.33;;;22.80;67.40;;;;;;10127041;29;20063;-55
2022/09/09 19:17:18;;;;;;;5.13;1.70;;;22.80;67.70;;;;;;10127216;29;20079;-55
2022/09/09 19:22:19;;;;;;;6.93;1.70;;;22.80;67.60;;;;;;10126778;29;20189;-54
2022/09/09 19:27:19;;;;;;;3.55;1.20;;;22.70;67.30;;;;;;10125726;29;20055;-55
2022/09/09 19:32:20;;;;;;;2.72;1.17;;;22.70;67.20;;;;;;10125803;29;20132;-54
2022/09/09 19:37:21;;;;;;;4.40;1.13;;;22.70;67.10;;;;;;10123880;29;20028;-54
2022/09/09 19:42:21;;;;;;;4.30;2.35;;;22.70;67.00;;;;;;10123469;29;20144;-54
2022/09/09 19:47:22;;;;;;;5.78;1.73;;;22.70;67.00;;;;;;10105841;29;20031;-54
2022/09/09 19:52:23;;;;;;;3.65;1.35;;;22.70;66.90;;;;;;10107053;29;20172;-55
2022/09/09 19:57:27;;;;;;;2.80;1.13;;;22.70;66.70;;;;;;10124577;29;20092;-54
2022/09/09 20:02:28;;;;;;;2.13;1.15;;;22.70;66.70;;;;;;10125313;29;20040;-55
2022/09/09 20:07:28;;;;;;;2.47;1.30;;;22.70;66.50;;;;;;10124754;29;20039;-55
2022/09/09 20:12:29;;;;;;;2.38;1.20;;;22.70;66.60;;;;;;10124874;29;20131;-54
2022/09/09 20:17:29;;;;;;;2.58;1.23;;;22.70;66.40;;;;;;10124797;29;20115;-55
2022/09/09 20:22:30;;;;;;;2.95;2.08;;;22.70;66.20;;;;;;10125130;29;20607;-54
2022/09/09 20:27:32;;;;;;;3.15;1.10;;;22.70;66.10;;;;;;10109757;29;20064;-54
2022/09/09 20:32:32;;;;;;;3.15;1.35;;;22.60;65.80;;;;;;10115899;29;20693;-54
2022/09/09 20:37:33;;;;;;;3.17;1.48;;;22.60;65.80;;;;;;10115377;29;20139;-54
2022/09/09 20:42:34;;;;;;;3.72;1.38;;;22.60;65.80;;;;;;10131964;29;20041;-53
2022/09/09 20:47:34;;;;;;;3.22;1.38;;;22.60;65.70;;;;;;10131957;29;20064;-56
2022/09/09 20:52:35;;;;;;;1.80;1.00;;;22.60;65.60;;;;;;10129259;29;20068;-53
2022/09/09 20:57:36;;;;;;;1.67;0.95;;;22.60;65.60;;;;;;10111885;29;20072;-53
2022/09/09 21:02:36;;;;;;;2.38;1.08;;;22.60;65.60;;;;;;10131493;29;20132;-54
2022/09/09 21:07:37;;;;;;;1.70;0.90;;;22.60;65.60;;;;;;10131148;29;20041;-53
2022/09/09 21:12:38;;;;;;;2.47;1.00;;;22.60;65.50;;;;;;10130883;29;20135;-54
2022/09/09 21:17:39;;;;;;;2.40;1.30;;;22.60;65.40;;;;;;10131948;29;20036;-54
2022/09/09 21:22:39;;;;;;;1.63;0.95;;;22.60;65.50;;;;;;10130696;29;20131;-54
2022/09/09 21:27:40;;;;;;;2.33;1.15;;;22.60;65.40;;;;;;10113854;29;20176;-54
2022/09/09 21:32:41;;;;;;;1.23;0.98;;;22.60;65.30;;;;;;10130892;29;20080;-54
2022/09/09 21:37:41;;;;;;;4.40;1.50;;;22.60;65.20;;;;;;10129547;29;20353;-54
2022/09/09 21:42:42;;;;;;;2.53;1.05;;;22.60;65.10;;;;;;10129098;29;20481;-55
2022/09/09 21:47:45;;;;;;;4.07;1.02;;;22.60;65.00;;;;;;10113059;29;20037;-53
2022/09/09 21:52:46;;;;;;;2.78;1.27;;;22.60;65.00;;;;;;10129858;29;20029;-54
2022/09/09 21:57:49;;;;;;;2.70;1.10;;;22.60;65.00;;;;;;10112618;29;20484;-53
2022/09/09 22:02:49;;;;;;;2.67;1.20;;;22.60;65.00;;;;;;10129245;29;20037;-55
2022/09/09 22:07:52;;;;;;;2.17;1.35;;;22.60;64.90;;;;;;10129241;29;20139;-55
2022/09/09 22:12:53;;;;;;;1.55;1.10;;;22.60;64.70;;;;;;10111739;29;20139;-55
2022/09/09 22:17:54;;;;;;;2.17;1.02;;;22.50;64.70;;;;;;10112099;29;20123;-54
2022/09/09 22:22:54;;;;;;;1.90;0.98;;;22.60;64.60;;;;;;10129039;29;20044;-53
2022/09/09 22:27:55;;;;;;;1.98;1.15;;;22.50;64.50;;;;;;10128350;29;20044;-54
2022/09/09 22:32:56;;;;;;;2.15;1.00;;;22.50;64.50;;;;;;10128408;29;20141;-55
2022/09/09 22:37:57;;;;;;;2.65;1.10;;;22.50;64.50;;;;;;10127789;29;20060;-55
2022/09/09 22:42:58;;;;;;;2.03;1.10;;;22.50;64.40;;;;;;10128043;29;20131;-55
2022/09/09 22:48:00;;;;;;;2.10;1.00;;;22.50;64.40;;;;;;10110972;29;20165;-55
2022/09/09 22:53:00;;;;;;;1.83;1.15;;;22.50;64.50;;;;;;10127010;29;20047;-54
2022/09/09 22:58:01;;;;;;;1.40;0.90;;;22.50;64.30;;;;;;10126761;29;20045;-53
2022/09/09 23:03:03;;;;;;;1.85;0.90;;;22.50;64.30;;;;;;10127442;29;20084;-55
2022/09/09 23:08:04;;;;;;;2.75;1.25;;;22.50;64.30;;;;;;10127060;29;20040;-55
2022/09/09 23:13:05;;;;;;;2.13;1.08;;;22.50;64.40;;;;;;10126490;29;20056;-55
2022/09/09 23:18:06;;;;;;;1.42;1.08;;;22.50;64.40;;;;;;10126280;29;20044;-54
2022/09/09 23:23:07;;;;;;;2.30;1.17;;;22.50;64.20;;;;;;10126599;29;20108;-53
2022/09/09 23:28:08;;;;;;;1.67;1.13;;;22.50;64.20;;;;;;10125780;29;20572;-55
2022/09/09 23:33:09;;;;;;;1.98;1.30;;;22.50;64.10;;;;;;10126443;29;20049;-54
2022/09/09 23:38:09;;;;;;;2.53;1.00;;;22.40;64.10;;;;;;10125252;29;20068;-53
2022/09/09 23:43:10;;;;;;;1.88;1.00;;;22.40;64.10;;;;;;10125674;29;20096;-55
2022/09/09 23:48:11;;;;;;;1.92;1.00;;;22.40;64.10;;;;;;10124941;29;20131;-55
2022/09/09 23:53:12;;;;;;;2.72;1.63;;;22.40;64.10;;;;;;10125130;29;20041;-54
2022/09/09 23:58:16;;;;;;;2.00;1.05;;;22.40;64.00;;;;;;10125430;29;20056;-54
